< < Back
Terminal Aerodrome Forecast


Current Version              Previous Versions:   1  2  3  4  5  6  7  8  9  

Terminal Aerodrome Forecast

107
FTUS42 KTAE 300527
TAFTLH
TAF
KTLH 300527Z 3006/0106 28003KT P6SM SKC
     FM300900 00000KT 2SM BR SCT006
     FM301400 14007KT P6SM SCT030
     FM301900 18008KT P6SM SCT050
     FM010200 18003KT P6SM SCT250=

Latest METAR

318
SAUS80 KWBC 301300 RRA
MTRTLH
METAR KTLH 301253Z 10006KT 1 1/2SM BR BKN002 22/21 A2995 RMK AO2 SFC VIS
2 SLP139 T02220211


USA.gov is the U.S. government's official web portal to all federal, state and local government web resources and services.